createdAt,value
2018-06-24T00:00:07.132Z,5.83
2018-06-24T00:02:36.091Z,6.47
2018-06-24T00:05:09.456Z,6.20
2018-06-24T00:07:38.803Z,6.50
2018-06-24T00:10:07.847Z,5.90
2018-06-24T00:12:37.563Z,6.30
2018-06-24T00:15:10.324Z,5.97
2018-06-24T00:17:39.563Z,6.80
2018-06-24T00:20:09.259Z,6.30
2018-06-24T00:22:38.364Z,6.20
2018-06-24T00:25:09.521Z,6.33
2018-06-24T00:27:38.863Z,5.90
2018-06-24T00:30:07.852Z,6.37
2018-06-24T00:32:36.998Z,6.43
2018-06-24T00:35:07.915Z,6.33
2018-06-24T00:37:37.779Z,6.43
2018-06-24T00:40:06.739Z,6.50
2018-06-24T00:42:35.683Z,6.43
2018-06-24T00:45:08.251Z,6.60
2018-06-24T00:47:37.354Z,6.80
2018-06-24T00:50:06.909Z,7.33
2018-06-24T00:52:37.313Z,7.10
2018-06-24T00:55:09.810Z,7.63
2018-06-24T00:57:39.449Z,6.90
2018-06-24T01:00:12.819Z,7.30
2018-06-24T01:02:42.314Z,6.80
2018-06-24T01:05:13.054Z,6.67
2018-06-24T01:07:43.802Z,6.30
2018-06-24T01:10:13.108Z,6.27
2018-06-24T01:12:42.612Z,6.80
2018-06-24T01:15:12.107Z,6.20
2018-06-24T01:17:42.024Z,6.90
2018-06-24T01:20:10.998Z,6.40
2018-06-24T01:22:40.158Z,6.70
2018-06-24T01:25:12.686Z,6.47
2018-06-24T01:27:42.405Z,6.27
2018-06-24T01:30:11.460Z,6.37
2018-06-24T01:32:40.534Z,6.60
2018-06-24T01:35:11.494Z,7.43
2018-06-24T01:37:40.444Z,6.50
2018-06-24T01:40:09.481Z,7.10
2018-06-24T01:42:38.594Z,6.93
2018-06-24T01:45:12.080Z,6.90
2018-06-24T01:47:41.004Z,6.97
2018-06-24T01:50:10.267Z,6.80
2018-06-24T01:52:40.396Z,6.50
2018-06-24T01:55:15.775Z,7.17
2018-06-24T01:57:45.004Z,7.13
2018-06-24T02:00:14.342Z,7.27
2018-06-24T02:02:43.429Z,6.87
2018-06-24T02:05:12.508Z,6.70
2018-06-24T02:07:41.942Z,6.93
2018-06-24T02:10:11.478Z,6.90
2018-06-24T02:12:43.829Z,7.23
2018-06-24T02:15:15.028Z,6.80
2018-06-24T02:17:44.225Z,7.00
2018-06-24T02:20:13.233Z,6.87
2018-06-24T02:22:42.431Z,7.27
2018-06-24T02:25:14.276Z,6.67
2018-06-24T02:27:43.394Z,7.20
2018-06-24T02:30:12.690Z,7.27
2018-06-24T02:32:41.758Z,6.97
2018-06-24T02:35:13.657Z,6.90
2018-06-24T02:37:43.892Z,7.03
2018-06-24T02:40:13.063Z,7.47
2018-06-24T02:42:42.142Z,7.10
2018-06-24T02:45:12.836Z,8.30
2018-06-24T02:47:41.791Z,7.77
2018-06-24T02:50:10.982Z,7.90
2018-06-24T02:52:40.046Z,7.23
2018-06-24T02:55:13.987Z,7.80
2018-06-24T02:57:43.208Z,6.83
2018-06-24T03:00:12.303Z,7.17
2018-06-24T03:02:41.596Z,7.73
2018-06-24T03:05:14.220Z,7.73
2018-06-24T03:07:43.586Z,7.33
2018-06-24T03:10:12.853Z,7.60
2018-06-24T03:12:42.382Z,7.70
2018-06-24T03:15:13.563Z,7.63
2018-06-24T03:17:43.150Z,7.87
2018-06-24T03:20:12.847Z,8.47
2018-06-24T03:22:41.905Z,7.27
2018-06-24T03:25:14.575Z,7.67
2018-06-24T03:27:44.249Z,8.20
2018-06-24T03:30:13.472Z,8.00
2018-06-24T03:32:42.426Z,7.43
2018-06-24T03:35:13.927Z,8.47
2018-06-24T03:37:43.865Z,7.93
2018-06-24T03:40:13.339Z,8.20
2018-06-24T03:42:42.444Z,8.13
2018-06-24T03:45:13.848Z,8.37
2018-06-24T03:47:42.918Z,8.40
2018-06-24T03:50:11.966Z,9.00
2018-06-24T03:52:41.088Z,9.20
2018-06-24T03:55:13.123Z,8.83
2018-06-24T03:57:42.247Z,8.87
2018-06-24T04:00:11.389Z,8.57
2018-06-24T04:02:40.846Z,9.30
2018-06-24T04:05:14.178Z,8.77
2018-06-24T04:07:43.701Z,9.83
2018-06-24T04:10:13.149Z,9.63
2018-06-24T04:12:42.685Z,9.30
2018-06-24T04:15:14.441Z,9.47
2018-06-24T04:17:43.638Z,9.20
2018-06-24T04:20:12.610Z,9.07
2018-06-24T04:22:41.687Z,9.73
2018-06-24T04:25:14.386Z,9.63
2018-06-24T04:27:43.334Z,10.17
2018-06-24T04:30:12.577Z,10.13
2018-06-24T04:32:41.689Z,10.13
2018-06-24T04:35:12.019Z,10.13
2018-06-24T04:37:41.070Z,10.47
2018-06-24T04:40:10.165Z,11.07
2018-06-24T04:42:39.261Z,11.77
2018-06-24T04:45:12.629Z,11.67
2018-06-24T04:47:42.384Z,11.07
2018-06-24T04:50:11.461Z,11.30
2018-06-24T04:52:40.410Z,10.90
2018-06-24T04:55:14.254Z,11.07
2018-06-24T04:57:43.672Z,11.57
2018-06-24T05:00:12.766Z,11.80
2018-06-24T05:02:41.857Z,10.10
2018-06-24T05:05:16.704Z,11.10
2018-06-24T05:07:45.895Z,11.50
2018-06-24T05:10:14.964Z,11.50
2018-06-24T05:12:44.076Z,11.53
2018-06-24T05:15:13.389Z,11.90
2018-06-24T05:17:42.484Z,11.23
2018-06-24T05:20:11.835Z,11.23
2018-06-24T05:22:40.866Z,12.40
2018-06-24T05:25:12.663Z,11.10
2018-06-24T05:27:42.263Z,12.37
2018-06-24T05:30:12.778Z,11.50
2018-06-24T05:32:42.478Z,11.97
2018-06-24T05:35:11.745Z,13.17
2018-06-24T05:37:40.899Z,12.70
2018-06-24T05:40:09.935Z,13.23
2018-06-24T05:42:38.898Z,13.97
2018-06-24T05:45:08.044Z,14.10
2018-06-24T05:47:37.354Z,14.57
2018-06-24T05:50:06.657Z,14.43
2018-06-24T05:52:35.761Z,15.00
2018-06-24T05:55:08.545Z,15.67
2018-06-24T05:57:37.870Z,14.47
2018-06-24T06:00:08.864Z,15.67
2018-06-24T06:02:38.705Z,15.57
2018-06-24T06:05:08.902Z,16.60
2018-06-24T06:07:38.324Z,17.43
2018-06-24T06:10:07.668Z,16.90
2018-06-24T06:12:36.923Z,17.20
2018-06-24T06:15:07.576Z,16.93
2018-06-24T06:17:36.563Z,16.37
2018-06-24T06:20:07.269Z,17.13
2018-06-24T06:22:36.591Z,17.17
2018-06-24T06:25:09.615Z,17.20
2018-06-24T06:27:39.272Z,17.80
2018-06-24T06:30:08.961Z,16.70
2018-06-24T06:32:38.590Z,16.90
2018-06-24T06:35:08.099Z,17.13
2018-06-24T06:37:37.383Z,17.33
2018-06-24T06:40:07.112Z,18.10
2018-06-24T06:42:36.094Z,17.77
2018-06-24T06:45:09.281Z,17.77
2018-06-24T06:47:38.354Z,17.47
2018-06-24T06:50:08.031Z,17.40
2018-06-24T06:52:37.903Z,19.47
2018-06-24T06:55:07.459Z,17.87
2018-06-24T06:57:36.689Z,17.73
2018-06-24T07:00:06.262Z,17.67
2018-06-24T07:02:35.221Z,17.90
2018-06-24T07:05:05.387Z,17.17
2018-06-24T07:07:41.025Z,17.43
2018-06-24T07:10:10.555Z,16.97
2018-06-24T07:12:39.650Z,18.13
2018-06-24T07:15:09.811Z,17.30
2018-06-24T07:17:38.790Z,17.73
2018-06-24T07:20:08.338Z,17.30
2018-06-24T07:22:37.335Z,18.67
2018-06-24T07:25:08.787Z,17.23
2018-06-24T07:27:40.715Z,17.73
2018-06-24T07:30:09.768Z,16.57
2018-06-24T07:32:39.063Z,16.00
2018-06-24T07:35:12.614Z,16.17
2018-06-24T07:37:41.978Z,15.67
2018-06-24T07:40:11.059Z,14.20
2018-06-24T07:42:40.955Z,16.07
2018-06-24T07:45:13.007Z,16.23
2018-06-24T07:47:42.305Z,16.90
2018-06-24T07:50:11.594Z,17.23
2018-06-24T07:52:41.670Z,13.87
2018-06-24T07:55:14.250Z,13.43
2018-06-24T07:57:43.448Z,13.80
2018-06-24T08:00:12.628Z,15.87
2018-06-24T08:02:42.471Z,15.20
2018-06-24T08:05:11.607Z,13.57
2018-06-24T08:07:40.743Z,13.17
2018-06-24T08:10:10.167Z,12.73
2018-06-24T08:12:39.134Z,13.10
2018-06-24T08:15:08.447Z,12.50
2018-06-24T08:17:37.676Z,11.40
2018-06-24T08:20:08.513Z,11.33
2018-06-24T08:22:37.647Z,11.40
2018-06-24T08:25:07.730Z,11.70
2018-06-24T08:27:37.528Z,11.40
2018-06-24T08:30:08.904Z,10.83
2018-06-24T08:32:37.841Z,9.53
2018-06-24T08:35:07.911Z,9.30
2018-06-24T08:37:37.036Z,10.40
2018-06-24T08:40:09.888Z,11.40
2018-06-24T08:42:40.115Z,11.67
2018-06-24T08:45:10.291Z,11.30
2018-06-24T08:47:39.547Z,11.77
2018-06-24T08:50:08.759Z,11.23
2018-06-24T08:52:38.012Z,11.70
2018-06-24T08:55:07.379Z,11.40
2018-06-24T08:57:36.613Z,12.50
2018-06-24T09:00:08.035Z,10.60
2018-06-24T09:02:37.056Z,12.83
2018-06-24T09:05:06.174Z,11.83
2018-06-24T09:07:35.102Z,11.83
2018-06-24T09:10:09.211Z,12.90
2018-06-24T09:12:38.593Z,12.17
2018-06-24T09:15:08.144Z,11.77
2018-06-24T09:17:37.278Z,10.17
2018-06-24T09:20:07.211Z,9.10
2018-06-24T09:22:36.480Z,9.10
2018-06-24T09:25:05.999Z,10.23
2018-06-24T09:27:35.313Z,9.20
2018-06-24T09:30:07.807Z,9.90
2018-06-24T09:32:37.248Z,8.73
2018-06-24T09:35:06.718Z,9.33
2018-06-24T09:37:35.669Z,10.20
2018-06-24T09:40:06.874Z,9.33
2018-06-24T09:42:36.108Z,9.43
2018-06-24T09:45:05.226Z,9.27
2018-06-24T09:47:34.513Z,10.30
2018-06-24T09:50:07.326Z,10.10
2018-06-24T09:52:37.178Z,10.07
2018-06-24T09:55:06.318Z,10.07
2018-06-24T09:57:35.373Z,8.47
2018-06-24T10:00:12.650Z,9.70
2018-06-24T10:02:41.876Z,9.20
2018-06-24T10:05:11.046Z,8.87
2018-06-24T10:07:40.298Z,10.30
2018-06-24T10:10:09.914Z,9.03
2018-06-24T10:12:39.436Z,9.43
2018-06-24T10:15:09.239Z,9.93
2018-06-24T10:17:38.825Z,8.87
2018-06-24T10:20:08.454Z,8.27
2018-06-24T10:22:37.704Z,8.60
2018-06-24T10:25:06.796Z,8.77
2018-06-24T10:27:35.951Z,8.57
2018-06-24T10:30:09.009Z,9.27
2018-06-24T10:32:38.133Z,9.20
2018-06-24T10:35:08.199Z,8.03
2018-06-24T10:37:37.716Z,8.10
2018-06-24T10:40:07.635Z,8.20
2018-06-24T10:42:36.601Z,8.00
2018-06-24T10:45:06.340Z,8.70
2018-06-24T10:47:35.542Z,7.50
2018-06-24T10:50:08.261Z,7.90
2018-06-24T10:52:37.484Z,7.23
2018-06-24T10:55:06.570Z,6.83
2018-06-24T10:57:35.723Z,6.43
2018-06-24T11:00:09.291Z,6.90
2018-06-24T11:02:38.450Z,14.17
2018-06-24T11:05:07.588Z,7.67
2018-06-24T11:07:37.018Z,7.33
2018-06-24T11:10:07.601Z,8.10
2018-06-24T11:12:36.714Z,7.70
2018-06-24T11:15:06.609Z,8.60
2018-06-24T11:17:36.376Z,7.40
2018-06-24T11:20:08.921Z,7.73
2018-06-24T11:22:38.812Z,6.10
2018-06-24T11:25:07.955Z,6.47
2018-06-24T11:27:37.167Z,5.57
2018-06-24T11:30:07.832Z,6.17
2018-06-24T11:32:37.095Z,6.20
2018-06-24T11:35:06.289Z,7.13
2018-06-24T11:37:35.813Z,6.73
2018-06-24T11:40:08.120Z,7.57
2018-06-24T11:42:37.678Z,6.47
2018-06-24T11:45:12.231Z,5.57
2018-06-24T11:47:41.567Z,5.67
2018-06-24T11:50:10.546Z,5.87
2018-06-24T11:52:39.767Z,5.50
2018-06-24T11:55:09.071Z,4.53
2018-06-24T11:57:45.116Z,4.60
2018-06-24T12:00:15.307Z,4.80
2018-06-24T12:02:44.350Z,4.50
2018-06-24T12:05:14.035Z,5.10
2018-06-24T12:07:43.238Z,4.60
2018-06-24T12:10:12.503Z,4.60
2018-06-24T12:12:41.643Z,4.30
2018-06-24T12:15:11.482Z,4.00
2018-06-24T12:17:40.644Z,3.90
2018-06-24T12:20:09.899Z,3.77
2018-06-24T12:22:39.064Z,4.17
2018-06-24T12:25:08.314Z,3.57
2018-06-24T12:27:37.331Z,4.00
2018-06-24T12:30:08.672Z,3.83
2018-06-24T12:32:38.002Z,3.77
2018-06-24T12:35:07.284Z,3.87
2018-06-24T12:37:36.549Z,3.67
2018-06-24T12:40:07.516Z,4.33
2018-06-24T12:42:36.826Z,4.43
2018-06-24T12:45:06.256Z,3.67
2018-06-24T12:47:35.424Z,3.77
2018-06-24T12:50:07.959Z,3.53
2018-06-24T12:52:37.080Z,3.70
2018-06-24T12:55:06.737Z,3.43
2018-06-24T12:57:35.879Z,4.03
2018-06-24T13:00:09.305Z,3.40
2018-06-24T13:02:38.081Z,3.40
2018-06-24T13:05:07.143Z,3.50
2018-06-24T13:07:36.304Z,3.30
2018-06-24T13:10:09.257Z,3.40
2018-06-24T13:12:38.334Z,2.80
2018-06-24T13:15:08.061Z,2.90
2018-06-24T13:17:37.385Z,2.80
2018-06-24T13:20:07.809Z,2.63
2018-06-24T13:22:36.788Z,3.10
2018-06-24T13:25:06.113Z,2.97
2018-06-24T13:27:35.193Z,3.00
2018-06-24T13:30:08.087Z,3.00
2018-06-24T13:32:38.278Z,2.93
2018-06-24T13:35:08.749Z,2.90
2018-06-24T13:37:37.996Z,3.17
2018-06-24T13:40:08.115Z,3.10
2018-06-24T13:42:37.653Z,2.57
2018-06-24T13:45:08.684Z,2.53
2018-06-24T13:47:37.878Z,2.87
2018-06-24T13:50:09.190Z,2.90
2018-06-24T13:52:38.707Z,2.87
2018-06-24T13:55:08.382Z,2.60
2018-06-24T13:57:37.546Z,2.10
2018-06-24T14:00:08.707Z,2.80
2018-06-24T14:02:39.124Z,2.40
2018-06-24T14:05:09.065Z,5.63
2018-06-24T14:07:38.205Z,3.17
2018-06-24T14:10:08.522Z,2.60
2018-06-24T14:12:37.663Z,2.43
2018-06-24T14:15:06.900Z,2.63
2018-06-24T14:17:36.047Z,2.57
2018-06-24T14:20:06.932Z,2.47
2018-06-24T14:22:36.087Z,2.60
2018-06-24T14:25:06.391Z,2.93
2018-06-24T14:27:35.892Z,3.10
2018-06-24T14:30:06.924Z,3.00
2018-06-24T14:32:36.009Z,2.80
2018-06-24T14:35:05.054Z,2.53
2018-06-24T14:37:34.204Z,2.43
2018-06-24T14:40:06.759Z,2.83
2018-06-24T14:42:35.833Z,3.50
2018-06-24T14:45:05.031Z,2.70
2018-06-24T14:47:34.286Z,3.50
2018-06-24T14:50:07.696Z,3.70
2018-06-24T14:52:36.703Z,4.80
2018-06-24T14:55:05.688Z,3.47
2018-06-24T14:57:36.606Z,3.73
2018-06-24T15:00:07.233Z,3.27
2018-06-24T15:02:40.878Z,3.30
2018-06-24T15:05:10.940Z,5.50
2018-06-24T15:07:41.068Z,3.40
2018-06-24T15:10:10.954Z,3.10
2018-06-24T15:12:40.120Z,3.20
2018-06-24T15:15:09.247Z,3.40
2018-06-24T15:17:39.327Z,3.63
2018-06-24T15:20:08.691Z,5.37
2018-06-24T15:22:37.853Z,3.90
2018-06-24T15:25:07.846Z,4.13
2018-06-24T15:27:37.147Z,3.73
2018-06-24T15:30:07.615Z,4.83
2018-06-24T15:32:36.925Z,5.83
2018-06-24T15:35:05.960Z,4.00
2018-06-24T15:37:35.572Z,4.37
2018-06-24T15:40:07.797Z,4.57
2018-06-24T15:42:37.127Z,4.07
2018-06-24T15:45:06.246Z,3.70
2018-06-24T15:47:35.238Z,4.60
2018-06-24T15:50:08.382Z,3.97
2018-06-24T15:52:37.429Z,10.77
2018-06-24T15:55:06.790Z,4.90
2018-06-24T15:57:36.029Z,4.60
2018-06-24T16:00:08.936Z,5.03
2018-06-24T16:02:38.518Z,4.70
2018-06-24T16:05:07.996Z,4.30
2018-06-24T16:07:37.232Z,4.40
2018-06-24T16:10:07.790Z,4.47
2018-06-24T16:12:36.754Z,5.20
2018-06-24T16:15:06.322Z,7.53
2018-06-24T16:17:35.327Z,6.10
2018-06-24T16:20:07.446Z,5.17
2018-06-24T16:22:37.135Z,6.83
2018-06-24T16:25:07.281Z,5.00
2018-06-24T16:27:36.532Z,5.97
2018-06-24T16:30:10.215Z,8.53
2018-06-24T16:32:39.167Z,7.90
2018-06-24T16:35:08.233Z,6.97
2018-06-24T16:37:37.418Z,9.43
2018-06-24T16:40:07.865Z,6.07
2018-06-24T16:42:37.265Z,6.77
2018-06-24T16:45:06.748Z,6.17
2018-06-24T16:47:35.924Z,6.10
2018-06-24T16:50:08.463Z,6.33
2018-06-24T16:52:37.658Z,7.00
2018-06-24T16:55:07.500Z,11.03
2018-06-24T16:57:37.144Z,5.40
2018-06-24T17:00:07.869Z,5.83
2018-06-24T17:02:37.556Z,6.80
2018-06-24T17:05:06.533Z,6.13
2018-06-24T17:07:35.914Z,5.77
2018-06-24T17:10:08.407Z,6.07
2018-06-24T17:12:37.581Z,5.60
2018-06-24T17:15:06.688Z,5.77
2018-06-24T17:17:35.975Z,5.80
2018-06-24T17:20:09.438Z,5.87
2018-06-24T17:22:38.667Z,6.40
2018-06-24T17:25:08.047Z,5.50
2018-06-24T17:27:38.091Z,6.77
2018-06-24T17:30:07.860Z,5.43
2018-06-24T17:32:37.911Z,5.70
2018-06-24T17:35:07.471Z,5.50
2018-06-24T17:37:36.715Z,5.70
2018-06-24T17:40:07.709Z,5.83
2018-06-24T17:42:36.810Z,5.60
2018-06-24T17:45:06.076Z,6.00
2018-06-24T17:47:35.368Z,8.70
2018-06-24T17:50:08.974Z,11.50
2018-06-24T17:52:38.331Z,9.17
2018-06-24T17:55:07.585Z,9.33
2018-06-24T17:57:37.070Z,7.87
2018-06-24T18:00:09.133Z,6.50
2018-06-24T18:02:38.398Z,8.63
2018-06-24T18:05:07.746Z,7.17
2018-06-24T18:07:37.218Z,6.97
2018-06-24T18:10:07.615Z,5.60
2018-06-24T18:12:36.875Z,6.90
2018-06-24T18:15:06.400Z,5.53
2018-06-24T18:17:35.363Z,5.07
2018-06-24T18:20:08.464Z,5.10
2018-06-24T18:22:37.509Z,5.13
2018-06-24T18:25:06.699Z,5.27
2018-06-24T18:27:35.916Z,5.80
2018-06-24T18:30:09.035Z,5.57
2018-06-24T18:32:38.713Z,5.57
2018-06-24T18:35:08.104Z,5.93
2018-06-24T18:37:37.094Z,6.40
2018-06-24T18:40:08.091Z,5.83
2018-06-24T18:42:37.060Z,5.63
2018-06-24T18:45:06.583Z,5.67
2018-06-24T18:47:35.781Z,5.33
2018-06-24T18:50:08.035Z,6.27
2018-06-24T18:52:37.367Z,6.43
2018-06-24T18:55:06.603Z,6.53
2018-06-24T18:57:35.688Z,6.70
2018-06-24T19:00:08.439Z,5.90
2018-06-24T19:02:37.703Z,5.67
2018-06-24T19:05:06.943Z,5.50
2018-06-24T19:07:35.914Z,5.50
2018-06-24T19:10:08.554Z,4.83
2018-06-24T19:12:38.426Z,5.40
2018-06-24T19:15:07.714Z,6.07
2018-06-24T19:17:37.217Z,5.37
2018-06-24T19:20:07.263Z,5.20
2018-06-24T19:22:37.107Z,5.60
2018-06-24T19:25:07.127Z,5.70
2018-06-24T19:27:36.264Z,6.63
2018-06-24T19:30:08.478Z,5.60
2018-06-24T19:32:38.240Z,5.53
2018-06-24T19:35:07.486Z,6.30
2018-06-24T19:37:37.478Z,6.00
2018-06-24T19:40:07.922Z,6.20
2018-06-24T19:42:37.070Z,6.50
2018-06-24T19:45:06.299Z,6.20
2018-06-24T19:47:41.825Z,6.97
2018-06-24T19:50:10.828Z,7.13
2018-06-24T19:52:40.166Z,6.20
2018-06-24T19:55:09.613Z,7.93
2018-06-24T19:57:38.583Z,6.73
2018-06-24T20:00:07.981Z,6.50
2018-06-24T20:02:37.307Z,6.93
2018-06-24T20:05:06.893Z,6.60
2018-06-24T20:07:36.267Z,7.00
2018-06-24T20:10:07.327Z,7.27
2018-06-24T20:12:36.356Z,6.93
2018-06-24T20:15:06.956Z,6.87
2018-06-24T20:17:36.487Z,6.27
2018-06-24T20:20:08.272Z,6.10
2018-06-24T20:22:38.598Z,6.73
2018-06-24T20:25:08.048Z,6.30
2018-06-24T20:27:37.889Z,6.60
2018-06-24T20:30:07.927Z,29.53
2018-06-24T20:32:37.103Z,15.10
2018-06-24T20:35:06.983Z,17.53
2018-06-24T20:37:36.241Z,6.63
2018-06-24T20:40:07.413Z,6.20
2018-06-24T20:42:36.627Z,12.50
2018-06-24T20:45:06.559Z,7.90
2018-06-24T20:47:37.317Z,10.30
2018-06-24T20:50:07.845Z,6.90
2018-06-24T20:52:37.134Z,9.80
2018-06-24T20:55:06.406Z,10.37
2018-06-24T20:57:35.572Z,28.87
2018-06-24T21:00:08.278Z,7.00
2018-06-24T21:02:37.865Z,11.00
2018-06-24T21:05:06.943Z,5.83
2018-06-24T21:07:36.319Z,6.37
2018-06-24T21:10:09.375Z,9.60
2018-06-24T21:12:38.874Z,8.37
2018-06-24T21:15:08.335Z,10.00
2018-06-24T21:17:37.514Z,6.17
2018-06-24T21:20:08.610Z,5.90
2018-06-24T21:22:38.518Z,9.73
2018-06-24T21:25:07.814Z,13.63
2018-06-24T21:27:36.924Z,13.53
2018-06-24T21:30:07.842Z,5.57
2018-06-24T21:32:36.815Z,5.90
2018-06-24T21:35:06.278Z,9.63
2018-06-24T21:37:40.140Z,22.17
2018-06-24T21:40:12.070Z,7.87
2018-06-24T21:42:45.774Z,6.43
2018-06-24T21:45:20.819Z,5.60
2018-06-24T21:47:54.362Z,8.57
2018-06-24T21:50:26.733Z,6.80
2018-06-24T21:52:57.888Z,6.17
2018-06-24T21:55:28.225Z,6.97
2018-06-24T21:57:59.456Z,6.30
2018-06-24T22:00:30.458Z,7.23
2018-06-24T22:03:01.125Z,7.07
2018-06-24T22:05:30.396Z,7.50
2018-06-24T22:07:59.606Z,7.10
2018-06-24T22:10:28.695Z,7.80
2018-06-24T22:12:57.804Z,8.53
2018-06-24T22:15:27.335Z,7.57
2018-06-24T22:17:56.609Z,8.87
2018-06-24T22:20:25.699Z,12.23
2018-06-24T22:22:54.996Z,8.00
2018-06-24T22:25:24.655Z,9.50
2018-06-24T22:27:53.775Z,8.47
2018-06-24T22:30:22.894Z,12.73
2018-06-24T22:32:52.014Z,9.60
2018-06-24T22:35:21.123Z,11.83
2018-06-24T22:37:50.374Z,8.40
2018-06-24T22:40:19.880Z,13.13
2018-06-24T22:42:49.081Z,10.30
2018-06-24T22:45:18.289Z,8.47
2018-06-24T22:47:47.433Z,9.20
2018-06-24T22:50:16.850Z,10.63
2018-06-24T22:52:45.808Z,7.53
2018-06-24T22:55:14.942Z,10.70
2018-06-24T22:57:44.086Z,10.53
2018-06-24T23:00:16.767Z,8.63
2018-06-24T23:02:46.516Z,8.00
2018-06-24T23:05:15.759Z,9.10
2018-06-24T23:07:45.600Z,6.87
2018-06-24T23:10:15.106Z,6.87
2018-06-24T23:12:44.490Z,6.23
2018-06-24T23:15:13.661Z,7.07
2018-06-24T23:17:42.788Z,6.73
2018-06-24T23:20:12.104Z,7.37
2018-06-24T23:22:41.460Z,7.07
2018-06-24T23:25:11.024Z,7.33
2018-06-24T23:27:40.388Z,6.57
2018-06-24T23:30:09.563Z,6.70
2018-06-24T23:32:38.507Z,6.33
2018-06-24T23:35:07.687Z,6.60
2018-06-24T23:37:37.059Z,7.07
2018-06-24T23:40:07.310Z,6.43
2018-06-24T23:42:36.233Z,6.33
2018-06-24T23:45:05.325Z,5.97
2018-06-24T23:47:34.262Z,6.73
2018-06-24T23:50:06.531Z,6.97
2018-06-24T23:52:35.714Z,8.03
2018-06-24T23:55:05.479Z,7.17
2018-06-24T23:57:34.438Z,7.80
